Time;durP1;ratioP1;P1;durP2;ratioP2;P2;SDS_P1;SDS_P2;PMS_P1;PMS_P2;Temp;Humidity;BMP_temperature;BMP_pressure;BME280_temperature;BME280_humidity;BME280_pressure;Samples;Min_cycle;Max_cycle;Signal;HPM_P1;HPM_P2
2022/02/11 00:08:53;;;;;;;20.42;14.43;;;179.60;2252.80;;;;;;4972712;28;20034;-58
2022/02/11 00:11:29;;;;;;;28.20;18.00;;;179.50;2252.80;;;;;;4972567;28;20023;-58
2022/02/11 00:13:54;;;;;;;31.73;20.52;;;179.60;2252.80;;;;;;4972519;28;20433;-57
2022/02/11 00:16:20;;;;;;;30.42;19.67;;;179.50;2252.80;;;;;;4972571;28;20047;-59
2022/02/11 00:18:46;;;;;;;26.52;17.05;;;179.50;2252.80;;;;;;4972937;28;20054;-59
2022/02/11 00:21:11;;;;;;;29.77;20.60;;;179.60;2252.80;;;;;;4972237;28;20117;-59
2022/02/11 00:23:38;;;;;;;121.40;62.35;;;179.50;2252.80;;;;;;4971979;28;20086;-57
2022/02/11 00:26:06;;;;;;;66.45;37.15;;;179.50;2252.80;;;;;;4972258;28;20092;-58
2022/02/11 00:33:44;;;;;;;62.97;35.60;;;179.40;2252.80;;;;;;4971516;28;20030;-60
2022/02/11 00:36:12;;;;;;;44.13;26.10;;;179.30;2252.80;;;;;;4971535;28;20103;-59
2022/02/11 01:03:17;;;;;;;32.13;21.88;;;154.50;2252.80;;;;;;4837830;29;20170;-59
2022/02/11 01:05:43;;;;;;;31.98;19.33;;;154.20;2252.80;;;;;;4837500;29;20117;-58
2022/02/11 01:08:10;;;;;;;28.98;17.55;;;154.20;2252.80;;;;;;4837562;29;20174;-58
2022/02/11 01:10:35;;;;;;;26.08;16.77;;;154.10;2252.80;;;;;;4837884;29;20196;-60
2022/02/11 01:13:01;;;;;;;23.95;15.00;;;154.10;2252.80;;;;;;4837496;29;20520;-59
2022/02/11 01:15:29;;;;;;;33.88;20.92;;;154.30;2252.80;;;;;;4837658;29;20106;-58
2022/02/11 01:17:59;;;;;;;58.85;30.52;;;154.30;2252.80;;;;;;4837626;29;20627;-58
2022/02/11 01:25:56;;;;;;;58.88;34.78;;;154.40;2252.80;;;;;;4892843;29;20029;-58
2022/02/11 01:52:46;;;;;;;17.20;10.85;;;153.70;2252.80;;;;;;4874393;29;20089;-57
2022/02/11 01:55:53;;;;;;;19.27;10.80;;;128.90;2252.80;;;;;;4908855;29;20060;-58
2022/02/11 02:11:40;;;;;;;21.92;12.65;;;128.80;2252.80;;;;;;4930808;29;20038;-57
2022/02/11 02:24:22;;;;;;;23.52;12.18;;;153.70;2252.80;;;;;;4930283;29;20163;-58
2022/02/11 02:37:37;;;;;;;55.55;32.13;;;153.90;2252.80;;;;;;4930142;29;20402;-57
2022/02/11 02:56:46;;;;;;;20.52;12.40;;;154.10;2252.80;;;;;;4952983;29;20050;-58
2022/02/11 03:14:40;;;;;;;26.17;12.57;;;153.90;2252.80;;;;;;4952672;29;20094;-58
2022/02/11 03:34:56;;;;;;;27.40;18.17;;;153.60;2252.80;;;;;;4973422;28;20041;-58
2022/02/11 04:21:07;;;;;;;22.77;15.63;;;128.60;2252.80;;;;;;4972946;28;20085;-57
2022/02/11 04:26:59;;;;;;;47.65;31.13;;;128.70;2252.80;;;;;;4972583;28;20847;-58
2022/02/11 04:56:02;;;;;;;55.13;34.92;;;153.60;2252.80;;;;;;4972172;28;20113;-59
2022/02/11 05:01:13;;;;;;;43.70;30.52;;;153.60;2252.80;;;;;;4971635;28;20437;-59
2022/02/11 05:03:39;;;;;;;47.67;28.58;;;153.60;2252.80;;;;;;4971811;28;20030;-59
2022/02/11 05:06:05;;;;;;;34.33;25.27;;;128.90;2252.80;;;;;;4972212;28;20428;-58
2022/02/11 05:08:30;;;;;;;37.10;16.52;;;128.90;2252.80;;;;;;4971614;28;20034;-59
2022/02/11 05:10:57;;;;;;;36.92;20.90;;;128.70;2252.80;;;;;;4970431;28;20115;-59
2022/02/11 05:13:24;;;;;;;30.55;18.70;;;128.60;2252.80;;;;;;4971524;28;20074;-59
2022/02/11 05:15:50;;;;;;;19.85;11.93;;;128.60;2252.80;;;;;;4971458;28;20022;-59
2022/02/11 05:18:19;;;;;;;18.77;13.10;;;128.60;2252.80;;;;;;4971675;28;20371;-58
2022/02/11 05:20:45;;;;;;;21.45;13.15;;;128.60;2252.80;;;;;;4971561;28;20540;-58
2022/02/11 05:23:14;;;;;;;26.17;15.48;;;128.50;2252.80;;;;;;4971353;28;20074;-58
2022/02/11 05:25:41;;;;;;;52.10;26.63;;;128.50;2252.80;;;;;;4971461;28;20027;-59
2022/02/11 05:28:11;;;;;;;47.15;22.20;;;128.60;2252.80;;;;;;4971781;28;20082;-58
2022/02/11 05:30:38;;;;;;;26.58;13.48;;;128.70;2252.80;;;;;;4971329;28;20393;-58
2022/02/11 05:33:04;;;;;;;23.40;12.27;;;128.80;2252.80;;;;;;4971381;28;20398;-58
2022/02/11 05:35:31;;;;;;;19.70;14.55;;;128.70;2252.80;;;;;;4971165;28;20046;-58
2022/02/11 05:37:56;;;;;;;74.10;48.03;;;128.80;2252.80;;;;;;4971354;28;20023;-58
2022/02/11 05:40:23;;;;;;;30.25;20.88;;;128.80;2252.80;;;;;;4971224;28;20030;-58
2022/02/11 05:42:49;;;;;;;36.33;24.10;;;128.80;2252.80;;;;;;4971458;28;20058;-58
2022/02/11 05:45:14;;;;;;;37.08;23.90;;;153.80;2252.80;;;;;;4970788;28;20481;-58
2022/02/11 05:47:40;;;;;;;39.47;21.08;;;128.80;2252.80;;;;;;4971104;28;20050;-58
2022/02/11 05:50:07;;;;;;;23.30;16.35;;;128.80;2252.80;;;;;;4971414;28;20110;-57
2022/02/11 05:52:34;;;;;;;27.65;18.30;;;128.80;2252.80;;;;;;4971235;28;20617;-58
2022/02/11 05:55:00;;;;;;;38.25;25.60;;;128.80;2252.80;;;;;;4971285;28;20433;-58
2022/02/11 05:57:26;;;;;;;45.58;29.55;;;128.80;2252.80;;;;;;4971307;28;20019;-58
2022/02/11 05:59:54;;;;;;;44.17;27.23;;;128.80;2252.80;;;;;;4970637;28;20046;-58
2022/02/11 06:02:20;;;;;;;49.28;30.90;;;128.90;2252.80;;;;;;4971092;28;20037;-58
2022/02/11 06:04:46;;;;;;;41.80;26.25;;;153.60;2252.80;;;;;;4971145;28;20026;-58
2022/02/11 06:07:11;;;;;;;48.70;31.25;;;153.60;2252.80;;;;;;4971072;28;20417;-58
2022/02/11 06:09:37;;;;;;;39.63;23.27;;;153.70;2252.80;;;;;;4971097;28;20054;-57
2022/02/11 06:12:03;;;;;;;32.00;18.63;;;153.70;2252.80;;;;;;4970969;28;20023;-57
2022/02/11 06:14:29;;;;;;;38.90;23.98;;;153.70;2252.80;;;;;;4970871;28;20030;-57
2022/02/11 06:16:55;;;;;;;47.78;28.88;;;153.70;2252.80;;;;;;4970997;28;20055;-58
2022/02/11 06:19:21;;;;;;;42.83;27.40;;;153.80;2252.80;;;;;;4953492;28;20070;-58
2022/02/11 06:21:46;;;;;;;102.45;68.82;;;153.80;2252.80;;;;;;4971933;28;20031;-57
2022/02/11 06:24:12;;;;;;;231.20;149.18;;;153.90;2252.80;;;;;;4974616;28;20030;-59
2022/02/11 06:26:40;;;;;;;268.05;176.35;;;153.90;2252.80;;;;;;4974867;28;20445;-58
2022/02/11 06:29:06;;;;;;;182.88;112.88;;;154.00;2252.80;;;;;;4974694;28;20057;-58
2022/02/11 06:31:31;;;;;;;116.07;71.07;;;154.10;2252.80;;;;;;4974417;28;20466;-58
2022/02/11 06:33:57;;;;;;;80.20;52.60;;;154.00;2252.80;;;;;;4974610;28;20026;-58
2022/02/11 06:36:23;;;;;;;71.55;45.88;;;154.10;2252.80;;;;;;4974255;28;20023;-57
2022/02/11 06:38:48;;;;;;;81.30;47.72;;;154.10;2252.80;;;;;;4974828;28;20080;-59
2022/02/11 06:41:14;;;;;;;76.43;50.63;;;154.20;2252.80;;;;;;4974395;28;20102;-57
2022/02/11 06:43:40;;;;;;;123.80;67.65;;;154.30;2252.80;;;;;;4974149;28;20038;-57
2022/02/11 06:46:06;;;;;;;100.20;54.50;;;154.30;2252.80;;;;;;4974521;28;20157;-58
2022/02/11 06:48:32;;;;;;;85.65;48.17;;;154.30;2252.80;;;;;;4974043;28;20035;-57
2022/02/11 06:50:58;;;;;;;75.43;43.60;;;154.30;2252.80;;;;;;4974270;28;20023;-57
2022/02/11 06:53:24;;;;;;;85.55;49.90;;;154.40;2252.80;;;;;;4973898;28;20042;-57
2022/02/11 06:55:50;;;;;;;100.93;62.17;;;154.50;2252.80;;;;;;4974029;28;20029;-57
2022/02/11 06:58:16;;;;;;;107.22;65.22;;;154.50;2252.80;;;;;;4956627;28;20481;-57
2022/02/11 07:00:47;;;;;;;105.97;69.22;;;179.20;2252.80;;;;;;4973689;28;20063;-58
2022/02/11 07:03:14;;;;;;;193.88;125.53;;;179.30;2252.80;;;;;;4973821;28;20046;-58
2022/02/11 07:05:40;;;;;;;264.38;153.73;;;179.40;2252.80;;;;;;4973749;28;20030;-58
2022/02/11 07:08:07;;;;;;;123.55;96.55;;;179.40;2252.80;;;;;;4974066;28;20504;-58
2022/02/11 07:10:33;;;;;;;90.43;67.22;;;179.40;2252.80;;;;;;4973959;28;20026;-58
2022/02/11 07:12:59;;;;;;;95.45;68.05;;;179.50;2252.80;;;;;;4973872;28;20031;-58
2022/02/11 07:15:25;;;;;;;54.40;31.67;;;179.50;2252.80;;;;;;4973868;28;20038;-58
2022/02/11 07:17:51;;;;;;;80.10;50.20;;;179.50;2252.80;;;;;;4973561;28;20034;-58
2022/02/11 07:20:17;;;;;;;50.63;33.60;;;179.70;2252.80;;;;;;4973686;28;20466;-59
2022/02/11 07:22:43;;;;;;;35.20;23.95;;;179.70;2252.80;;;;;;4973627;28;20078;-59
2022/02/11 07:25:14;;;;;;;34.08;24.25;;;179.70;2252.80;;;;;;4973584;28;20077;-58
2022/02/11 07:27:40;;;;;;;35.08;23.80;;;179.90;2252.80;;;;;;4973366;28;20035;-60
2022/02/11 07:30:07;;;;;;;37.63;25.33;;;180.00;2252.80;;;;;;4973551;28;20081;-59
2022/02/11 07:32:33;;;;;;;45.60;29.42;;;180.10;2252.80;;;;;;4972986;28;20042;-58
2022/02/11 07:35:03;;;;;;;38.22;25.60;;;180.10;2252.80;;;;;;4972558;28;20114;-60
2022/02/11 07:37:35;;;;;;;51.50;37.08;;;204.80;2252.80;;;;;;4973627;28;20027;-58
2022/02/11 07:40:01;;;;;;;62.75;41.17;;;204.90;2252.80;;;;;;4973098;28;20038;-59
2022/02/11 07:42:26;;;;;;;42.10;29.52;;;205.10;2252.80;;;;;;4973195;28;20093;-61
2022/02/11 07:44:53;;;;;;;43.10;29.75;;;205.10;2252.80;;;;;;4973018;28;20031;-62
2022/02/11 07:47:19;;;;;;;51.42;35.25;;;205.20;2252.80;;;;;;4973284;28;20027;-59
2022/02/11 07:49:45;;;;;;;46.67;31.73;;;205.40;2252.80;;;;;;4973152;28;20113;-60
2022/02/11 07:52:11;;;;;;;40.00;27.27;;;230.80;2252.80;;;;;;4973239;28;20162;-62
2022/02/11 07:54:37;;;;;;;44.22;30.10;;;282.20;2278.40;;;;;;4973176;28;20070;-59
2022/02/11 07:57:03;;;;;;;42.72;31.92;;;333.50;2048.00;;;;;;4973060;28;20030;-60
2022/02/11 07:59:29;;;;;;;36.13;26.65;;;359.20;1843.20;;;;;;4972454;28;20055;-60
2022/02/11 08:01:55;;;;;;;37.03;26.55;;;359.30;1817.60;;;;;;4972014;28;20409;-64
2022/02/11 08:04:22;;;;;;;31.15;22.50;;;384.50;1766.40;;;;;;4971716;28;20054;-63
2022/02/11 08:06:48;;;;;;;29.77;20.95;;;384.60;1740.80;;;;;;4972016;28;20027;-63
2022/02/11 08:09:13;;;;;;;31.85;24.20;;;409.70;1715.20;;;;;;4971665;28;20027;-59
2022/02/11 08:11:39;;;;;;;30.98;26.92;;;410.50;1689.60;;;;;;4971815;28;20105;-60
2022/02/11 08:14:05;;;;;;;45.08;34.00;;;460.90;1587.20;;;;;;4971877;28;20410;-61
2022/02/11 08:16:31;;;;;;;41.53;30.63;;;486.40;1510.40;;;;;;4971530;28;20480;-62
2022/02/11 08:18:57;;;;;;;43.28;34.22;;;512.20;1433.60;;;;;;4971696;28;20118;-60
2022/02/11 08:21:24;;;;;;;58.17;43.42;;;537.90;1356.80;;;;;;4971469;28;20037;-60
2022/02/11 08:23:51;;;;;;;111.03;81.38;;;563.20;1331.20;;;;;;4971367;28;20039;-61
2022/02/11 08:26:17;;;;;;;68.07;50.88;;;563.70;1305.60;;;;;;4971733;28;20033;-61
2022/02/11 08:28:42;;;;;;;51.78;45.63;;;589.20;1254.40;;;;;;4971450;28;20431;-61
2022/02/11 08:31:09;;;;;;;74.55;66.43;;;589.40;1203.20;;;;;;4971642;28;20448;-58
2022/02/11 08:33:35;;;;;;;74.88;66.68;;;589.30;1203.20;;;;;;4971586;28;20448;-57
2022/02/11 08:36:01;;;;;;;68.95;59.58;;;589.20;1203.20;;;;;;4971195;28;20039;-60
2022/02/11 08:38:27;;;;;;;49.45;44.15;;;589.00;1228.80;;;;;;4971391;28;20033;-59
2022/02/11 08:40:54;;;;;;;56.08;47.03;;;589.40;1177.60;;;;;;4971138;28;20110;-59
2022/02/11 08:43:23;;;;;;;40.15;34.50;;;614.50;1177.60;;;;;;4971174;28;20043;-61
2022/02/11 08:45:50;;;;;;;40.25;35.97;;;615.10;1126.40;;;;;;4970767;28;20072;-59
2022/02/11 08:48:16;;;;;;;43.95;39.38;;;640.20;1100.80;;;;;;4971364;28;20037;-64
2022/02/11 08:50:43;;;;;;;50.13;43.78;;;640.60;1075.20;;;;;;4971048;28;20022;-61
2022/02/11 08:53:09;;;;;;;47.10;42.10;;;640.10;1100.80;;;;;;4971376;28;20106;-60
2022/02/11 08:55:36;;;;;;;60.35;52.67;;;665.90;1075.20;;;;;;4971309;28;20127;-63
2022/02/11 08:58:05;;;;;;;53.33;47.58;;;665.90;1049.60;;;;;;4971058;28;20117;-62
2022/02/11 09:00:31;;;;;;;52.20;43.92;;;665.60;1075.20;;;;;;4930599;28;1178532;-59
2022/02/11 09:02:57;;;;;;;48.92;42.45;;;665.60;1075.20;;;;;;4969777;28;20039;-59
2022/02/11 09:05:25;;;;;;;62.58;55.55;;;666.40;1024.00;;;;;;4969400;28;20056;-62
2022/02/11 09:07:55;;;;;;;76.88;67.53;;;665.90;1049.60;;;;;;4970234;28;20050;-61
2022/02/11 09:10:22;;;;;;;92.43;82.57;;;665.70;1049.60;;;;;;4970221;28;20106;-60
2022/02/11 09:12:50;;;;;;;112.22;100.18;;;666.00;1049.60;;;;;;4970374;28;20042;-65
2022/02/11 09:15:15;;;;;;;89.07;79.82;;;666.20;1024.00;;;;;;4970096;28;20465;-61
2022/02/11 09:17:41;;;;;;;84.20;75.53;;;666.40;1049.60;;;;;;4969917;28;20039;-61
2022/02/11 09:20:08;;;;;;;74.05;65.90;;;666.30;1049.60;;;;;;4969482;28;20031;-60
2022/02/11 09:22:34;;;;;;;71.93;63.38;;;665.80;1075.20;;;;;;4969743;28;20389;-62
2022/02/11 09:24:59;;;;;;;62.33;55.63;;;666.30;1049.60;;;;;;4970016;28;20035;-61
2022/02/11 09:27:25;;;;;;;52.55;46.83;;;640.70;1075.20;;;;;;4970416;28;20450;-63
2022/02/11 09:29:51;;;;;;;62.85;53.25;;;640.10;1100.80;;;;;;4969743;28;20030;-61
2022/02/11 09:32:17;;;;;;;76.32;65.63;;;614.50;1126.40;;;;;;4969599;28;20030;-61
2022/02/11 09:34:44;;;;;;;81.25;72.18;;;589.10;1203.20;;;;;;4969578;28;20114;-60
2022/02/11 09:37:10;;;;;;;95.32;81.47;;;589.40;1177.60;;;;;;4969949;28;20030;-60
2022/02/11 09:39:36;;;;;;;89.15;76.10;;;589.10;1203.20;;;;;;4970023;28;20034;-60
2022/02/11 09:42:02;;;;;;;80.30;71.45;;;563.90;1254.40;;;;;;4969760;28;20438;-61
2022/02/11 09:44:28;;;;;;;65.78;58.28;;;563.70;1254.40;;;;;;4969196;28;20041;-61
2022/02/11 09:46:55;;;;;;;64.25;53.08;;;512.80;1305.60;;;;;;4969528;28;20491;-62
2022/02/11 09:49:22;;;;;;;62.90;55.35;;;487.00;1356.80;;;;;;4969483;28;20027;-60
2022/02/11 09:51:54;;;;;;;73.07;58.85;;;461.70;1433.60;;;;;;4969971;28;20389;-61
2022/02/11 09:54:22;;;;;;;71.72;54.17;;;461.40;1459.20;;;;;;4969687;28;20522;-61
2022/02/11 09:56:50;;;;;;;77.72;54.22;;;461.20;1459.20;;;;;;4970661;28;20426;-60
2022/02/11 09:59:16;;;;;;;74.82;55.90;;;436.10;1484.80;;;;;;4973067;28;20415;-60
2022/02/11 10:01:42;;;;;;;57.22;45.67;;;460.80;1536.00;;;;;;4973420;28;20093;-60
2022/02/11 10:04:26;;;;;;;68.00;47.95;;;435.50;1536.00;;;;;;4973602;28;20070;-59
2022/02/11 10:06:52;;;;;;;63.17;48.35;;;435.30;1587.20;;;;;;4971959;28;20511;-60
2022/02/11 10:09:22;;;;;;;73.63;47.55;;;435.30;1587.20;;;;;;4973558;28;20582;-60
2022/02/11 10:11:48;;;;;;;53.03;41.88;;;435.20;1587.20;;;;;;4972934;28;20063;-59
2022/02/11 10:14:25;;;;;;;69.80;50.78;;;410.30;1612.80;;;;;;4973251;28;20664;-59
2022/02/11 10:16:55;;;;;;;54.17;40.95;;;409.90;1638.40;;;;;;4973157;28;20089;-58
2022/02/11 10:19:40;;;;;;;57.58;41.70;;;409.90;1664.00;;;;;;4973160;28;20102;-60
2022/02/11 10:22:16;;;;;;;60.10;42.28;;;410.00;1664.00;;;;;;4973363;28;20466;-59
2022/02/11 10:24:43;;;;;;;160.02;103.50;;;410.00;1664.00;;;;;;4972650;28;20045;-60
2022/02/11 10:27:21;;;;;;;41.35;30.88;;;410.00;1664.00;;;;;;4973165;28;20484;-59
2022/02/11 10:29:49;;;;;;;53.70;32.90;;;410.00;1638.40;;;;;;4972954;28;20031;-59
2022/02/11 10:32:15;;;;;;;40.35;27.63;;;410.20;1638.40;;;;;;4972953;28;20096;-60
2022/02/11 10:34:41;;;;;;;36.15;24.63;;;410.20;1612.80;;;;;;4972743;28;20061;-60
2022/02/11 10:37:10;;;;;;;33.55;20.52;;;410.20;1612.80;;;;;;4972524;28;20027;-63
2022/02/11 10:39:37;;;;;;;19.30;15.60;;;410.30;1587.20;;;;;;4973022;28;20023;-60
2022/02/11 10:42:10;;;;;;;46.28;28.83;;;409.90;1612.80;;;;;;4972752;28;20027;-59
2022/02/11 10:44:39;;;;;;;40.45;28.02;;;409.90;1638.40;;;;;;4973150;28;20444;-62
2022/02/11 10:47:11;;;;;;;44.33;26.38;;;409.70;1612.80;;;;;;4973048;28;20473;-58
2022/02/11 10:49:39;;;;;;;43.95;29.67;;;409.90;1638.40;;;;;;4972376;28;20030;-59
2022/02/11 10:52:21;;;;;;;27.10;17.08;;;410.20;1612.80;;;;;;4972822;28;20023;-63
2022/02/11 10:54:52;;;;;;;32.90;20.92;;;410.00;1612.80;;;;;;4972688;28;20515;-59
2022/02/11 10:57:21;;;;;;;29.55;17.33;;;410.00;1612.80;;;;;;4972676;28;20054;-60
2022/02/11 10:59:48;;;;;;;28.23;16.88;;;410.50;1561.60;;;;;;4972282;28;20042;-60
2022/02/11 11:02:17;;;;;;;25.23;14.55;;;410.50;1536.00;;;;;;4955186;28;20421;-60
2022/02/11 11:04:45;;;;;;;33.35;18.52;;;410.50;1536.00;;;;;;4971951;28;20129;-60
2022/02/11 11:07:13;;;;;;;22.48;12.50;;;410.50;1561.60;;;;;;4971928;28;20118;-59
2022/02/11 11:09:45;;;;;;;19.73;12.73;;;410.00;1536.00;;;;;;4972686;28;20027;-60
2022/02/11 11:12:14;;;;;;;23.13;13.75;;;410.00;1536.00;;;;;;4972270;28;20019;-61
2022/02/11 11:14:46;;;;;;;17.98;10.73;;;410.00;1536.00;;;;;;4972142;28;20050;-60
2022/02/11 11:17:14;;;;;;;25.80;14.35;;;410.00;1536.00;;;;;;4971540;28;20614;-61
2022/02/11 11:19:40;;;;;;;22.25;15.38;;;410.20;1536.00;;;;;;4972297;28;20051;-63
2022/02/11 11:22:11;;;;;;;19.40;14.77;;;410.00;1561.60;;;;;;4972413;28;20031;-59
2022/02/11 11:24:49;;;;;;;24.25;16.70;;;410.00;1536.00;;;;;;4972079;28;20130;-62
2022/02/11 11:27:42;;;;;;;34.50;20.52;;;410.00;1536.00;;;;;;4971927;28;20023;-59
2022/02/11 11:30:32;;;;;;;27.30;16.92;;;409.90;1536.00;;;;;;4971389;28;20454;-59
2022/02/11 11:33:07;;;;;;;27.92;18.00;;;409.90;1510.40;;;;;;4972015;28;20035;-59
2022/02/11 11:35:53;;;;;;;35.35;22.27;;;410.10;1510.40;;;;;;4971808;28;20041;-59
2022/02/11 11:38:22;;;;;;;27.17;11.80;;;410.20;1561.60;;;;;;4961268;28;20084;-62
2022/02/11 11:41:11;;;;;;;19.10;10.30;;;410.00;1510.40;;;;;;4971687;28;20031;-66
2022/02/11 11:43:40;;;;;;;14.23;8.68;;;410.20;1510.40;;;;;;4971524;28;20462;-62
2022/02/11 11:46:25;;;;;;;32.85;16.80;;;410.30;1484.80;;;;;;4971981;28;20030;-62
2022/02/11 11:49:08;;;;;;;46.03;28.33;;;410.30;1510.40;;;;;;4973684;28;20102;-61
2022/02/11 11:51:39;;;;;;;33.97;19.00;;;410.00;1510.40;;;;;;4973145;28;20054;-61
2022/02/11 11:54:23;;;;;;;29.33;19.95;;;410.00;1510.40;;;;;;4973301;28;20023;-62
2022/02/11 11:57:01;;;;;;;19.15;11.98;;;409.90;1510.40;;;;;;4973056;28;20105;-62
2022/02/11 11:59:47;;;;;;;17.50;10.23;;;409.70;1510.40;;;;;;4972795;28;20039;-63
2022/02/11 12:02:14;;;;;;;19.50;10.95;;;384.90;1484.80;;;;;;4972810;28;20078;-59
2022/02/11 12:04:40;;;;;;;31.98;19.83;;;409.70;1510.40;;;;;;4972872;28;20043;-60
2022/02/11 12:07:07;;;;;;;24.17;16.00;;;409.80;1510.40;;;;;;4973114;28;20023;-62
2022/02/11 12:09:33;;;;;;;22.02;11.32;;;409.90;1510.40;;;;;;4973036;28;20125;-60
2022/02/11 12:12:04;;;;;;;23.73;16.13;;;409.80;1510.40;;;;;;4972450;28;20469;-60
2022/02/11 12:14:31;;;;;;;14.32;9.73;;;410.00;1536.00;;;;;;4953623;29;20031;-63
2022/02/11 12:16:58;;;;;;;18.83;11.63;;;410.00;1510.40;;;;;;4953362;29;20035;-59
2022/02/11 12:19:25;;;;;;;26.52;13.90;;;410.20;1484.80;;;;;;4952627;28;20028;-60
2022/02/11 12:21:51;;;;;;;19.83;13.82;;;410.50;1484.80;;;;;;4953315;29;20055;-60
2022/02/11 12:27:20;;;;;;;15.38;11.18;;;410.50;1484.80;;;;;;4953340;29;20042;-60
2022/02/11 12:30:08;;;;;;;19.33;13.38;;;410.30;1484.80;;;;;;4953128;29;20047;-59
2022/02/11 12:32:43;;;;;;;18.10;9.23;;;410.30;1484.80;;;;;;4952955;29;20081;-58
2022/02/11 12:35:37;;;;;;;19.55;13.70;;;410.00;1510.40;;;;;;4953169;29;20035;-59
2022/02/11 12:38:04;;;;;;;20.92;13.23;;;410.20;1484.80;;;;;;4952543;29;20042;-59
2022/02/11 12:40:35;;;;;;;30.48;20.70;;;410.10;1510.40;;;;;;4952917;29;20027;-61
2022/02/11 12:43:03;;;;;;;23.98;13.13;;;410.30;1510.40;;;;;;4952752;29;20098;-60
2022/02/11 12:45:36;;;;;;;28.77;18.90;;;410.20;1510.40;;;;;;4952847;29;20039;-61
2022/02/11 12:48:04;;;;;;;20.70;13.05;;;410.40;1484.80;;;;;;4952624;29;20035;-62
2022/02/11 12:50:36;;;;;;;21.05;13.45;;;410.20;1484.80;;;;;;4952821;29;20386;-59
2022/02/11 12:53:04;;;;;;;23.80;15.18;;;410.50;1459.20;;;;;;4952607;29;20114;-59
2022/02/11 12:55:33;;;;;;;31.75;18.08;;;435.20;1484.80;;;;;;4952522;29;20031;-59
2022/02/11 12:58:01;;;;;;;33.55;22.65;;;435.30;1459.20;;;;;;4951055;29;20034;-58
2022/02/11 13:00:32;;;;;;;64.35;40.55;;;410.40;1484.80;;;;;;4949880;28;20051;-58
2022/02/11 13:03:01;;;;;;;37.40;26.25;;;410.50;1484.80;;;;;;4950865;29;20134;-58
2022/02/11 13:05:29;;;;;;;40.28;25.42;;;410.50;1510.40;;;;;;4951086;29;20046;-61
2022/02/11 13:07:57;;;;;;;36.63;23.98;;;410.30;1510.40;;;;;;4950721;29;20039;-59
2022/02/11 13:10:29;;;;;;;37.55;25.15;;;410.50;1510.40;;;;;;4950943;29;20035;-58
2022/02/11 13:13:00;;;;;;;21.02;14.43;;;435.20;1484.80;;;;;;4950535;29;20107;-59
2022/02/11 13:15:35;;;;;;;43.63;27.35;;;410.50;1484.80;;;;;;4950833;29;20140;-59
2022/02/11 13:18:09;;;;;;;44.40;29.10;;;410.30;1510.40;;;;;;4950610;29;20070;-59
2022/02/11 13:20:42;;;;;;;22.88;15.60;;;410.40;1484.80;;;;;;4951102;29;20105;-58
2022/02/11 13:23:12;;;;;;;22.83;13.98;;;410.40;1510.40;;;;;;4950813;29;20073;-59
2022/02/11 13:25:39;;;;;;;28.95;14.80;;;410.50;1510.40;;;;;;4950388;29;20035;-57
2022/02/11 13:28:10;;;;;;;69.65;42.17;;;410.50;1510.40;;;;;;4950607;29;20426;-59
2022/02/11 13:30:38;;;;;;;26.33;16.85;;;410.30;1510.40;;;;;;4950568;28;20035;-58
2022/02/11 13:33:34;;;;;;;24.92;15.40;;;435.30;1484.80;;;;;;4950657;29;20035;-60
2022/02/11 13:36:05;;;;;;;29.50;17.83;;;435.20;1484.80;;;;;;4950405;29;20027;-59
2022/02/11 13:38:39;;;;;;;40.90;23.08;;;435.20;1510.40;;;;;;4949996;29;20023;-59
2022/02/11 13:41:08;;;;;;;30.50;17.10;;;410.50;1510.40;;;;;;4950628;29;20027;-61
2022/02/11 13:43:54;;;;;;;30.27;19.90;;;410.30;1510.40;;;;;;4950488;29;20066;-60
2022/02/11 13:46:40;;;;;;;26.60;15.30;;;410.20;1536.00;;;;;;4950358;29;20504;-59
2022/02/11 13:49:14;;;;;;;40.45;29.45;;;410.30;1510.40;;;;;;4950820;29;20051;-60
2022/02/11 13:51:42;;;;;;;28.60;16.80;;;410.30;1510.40;;;;;;4951468;29;20390;-59
2022/02/11 13:54:12;;;;;;;41.38;27.38;;;410.30;1510.40;;;;;;4952412;29;20035;-62
2022/02/11 13:56:40;;;;;;;30.90;19.52;;;410.40;1536.00;;;;;;4952089;29;20382;-61
2022/02/11 13:59:13;;;;;;;28.52;20.38;;;410.30;1510.40;;;;;;4952025;29;20473;-59
2022/02/11 14:01:43;;;;;;;33.35;17.98;;;410.30;1510.40;;;;;;4944168;29;20055;-62
2022/02/11 14:04:14;;;;;;;39.40;24.55;;;410.30;1510.40;;;;;;4951913;29;20035;-58
2022/02/11 14:06:56;;;;;;;29.33;19.33;;;410.30;1510.40;;;;;;4951977;29;20027;-59
2022/02/11 14:09:41;;;;;;;35.35;23.90;;;410.50;1510.40;;;;;;4951728;29;20032;-58
2022/02/11 14:12:13;;;;;;;21.33;14.77;;;410.50;1510.40;;;;;;4951985;29;20023;-58
2022/02/11 14:15:05;;;;;;;16.88;11.07;;;435.20;1484.80;;;;;;4951943;29;20027;-57
2022/02/11 14:17:34;;;;;;;47.33;22.67;;;410.30;1510.40;;;;;;4951723;29;20032;-59
2022/02/11 14:19:59;;;;;;;45.50;29.77;;;410.50;1510.40;;;;;;4951851;29;20082;-59
2022/02/11 14:22:25;;;;;;;39.20;22.95;;;410.50;1510.40;;;;;;4965858;28;20525;-58
2022/02/11 14:24:51;;;;;;;21.20;15.23;;;435.20;1484.80;;;;;;4970901;28;20058;-58
2022/02/11 14:27:17;;;;;;;32.72;21.85;;;435.30;1484.80;;;;;;4971160;28;20026;-58
2022/02/11 14:29:43;;;;;;;23.90;17.95;;;435.30;1484.80;;;;;;4970773;28;20113;-59
2022/02/11 14:32:09;;;;;;;27.20;18.60;;;410.50;1484.80;;;;;;4971379;28;20027;-59
2022/02/11 14:34:34;;;;;;;36.28;24.10;;;410.50;1484.80;;;;;;4970906;28;20036;-61
2022/02/11 14:37:01;;;;;;;54.85;33.50;;;435.20;1484.80;;;;;;4968049;28;20391;-60
2022/02/11 14:39:27;;;;;;;46.60;33.33;;;410.50;1510.40;;;;;;4969473;28;20150;-58
2022/02/11 14:41:57;;;;;;;28.55;20.08;;;410.40;1484.80;;;;;;4969402;28;20062;-59
2022/02/11 14:44:32;;;;;;;23.77;15.07;;;410.50;1484.80;;;;;;4972496;28;20062;-59
2022/02/11 14:46:59;;;;;;;68.78;46.33;;;410.50;1510.40;;;;;;4972949;28;20033;-59
2022/02/11 14:49:26;;;;;;;69.03;42.30;;;410.40;1510.40;;;;;;4972519;28;20043;-59
2022/02/11 14:51:58;;;;;;;80.60;50.35;;;410.20;1510.40;;;;;;4972449;28;20370;-59
2022/02/11 14:54:24;;;;;;;41.85;29.23;;;410.20;1536.00;;;;;;4972607;28;20105;-59
2022/02/11 14:56:51;;;;;;;36.97;20.63;;;410.00;1536.00;;;;;;4972825;28;20035;-60
2022/02/11 14:59:18;;;;;;;72.10;47.40;;;409.90;1536.00;;;;;;4972495;28;20037;-59
2022/02/11 15:01:45;;;;;;;79.97;53.25;;;410.10;1536.00;;;;;;4971954;28;20030;-59
2022/02/11 15:04:11;;;;;;;83.30;52.78;;;410.20;1536.00;;;;;;4972360;28;20508;-61
2022/02/11 15:06:37;;;;;;;72.35;47.67;;;410.20;1536.00;;;;;;4972416;28;20031;-59
2022/02/11 15:09:05;;;;;;;76.40;51.03;;;410.20;1510.40;;;;;;4972593;28;20425;-59
2022/02/11 15:11:32;;;;;;;80.78;57.95;;;410.20;1510.40;;;;;;4972309;28;20070;-60
2022/02/11 15:13:57;;;;;;;69.63;51.10;;;410.20;1536.00;;;;;;4972126;28;20037;-59
2022/02/11 15:16:23;;;;;;;58.67;37.60;;;410.20;1536.00;;;;;;4972067;28;20023;-59
2022/02/11 15:18:49;;;;;;;51.45;36.60;;;410.10;1536.00;;;;;;4972468;28;20034;-58
2022/02/11 15:21:15;;;;;;;59.60;42.35;;;410.00;1510.40;;;;;;4972038;28;20474;-59
2022/02/11 15:23:42;;;;;;;65.97;45.40;;;410.00;1510.40;;;;;;4972068;28;20058;-60
2022/02/11 15:26:09;;;;;;;63.75;47.70;;;410.00;1510.40;;;;;;4972210;28;20034;-60
2022/02/11 15:28:37;;;;;;;71.63;48.20;;;409.90;1536.00;;;;;;4971468;28;20371;-59
2022/02/11 15:31:04;;;;;;;83.78;55.38;;;409.70;1536.00;;;;;;4971768;28;20072;-59
2022/02/11 15:33:30;;;;;;;69.60;50.50;;;409.60;1587.20;;;;;;4971987;28;20117;-59
2022/02/11 15:35:57;;;;;;;121.47;84.25;;;384.80;1561.60;;;;;;4972066;28;20031;-59
2022/02/11 15:38:23;;;;;;;101.10;70.80;;;384.60;1587.20;;;;;;4971874;28;20037;-60
2022/02/11 15:40:50;;;;;;;100.25;72.28;;;384.40;1612.80;;;;;;4970289;28;20082;-59
2022/02/11 15:43:16;;;;;;;73.13;55.72;;;384.40;1612.80;;;;;;4972107;28;20066;-61
2022/02/11 15:45:43;;;;;;;57.40;36.42;;;384.30;1612.80;;;;;;4971634;28;20058;-61
2022/02/11 15:48:10;;;;;;;57.30;39.00;;;384.20;1638.40;;;;;;4971818;28;20109;-59
2022/02/11 15:50:36;;;;;;;65.22;44.03;;;384.10;1638.40;;;;;;4971665;28;20031;-61
2022/02/11 15:53:02;;;;;;;60.33;40.65;;;384.00;1664.00;;;;;;4971652;28;20034;-61
2022/02/11 15:55:28;;;;;;;70.13;51.33;;;359.30;1664.00;;;;;;4970234;28;20074;-61
2022/02/11 15:57:53;;;;;;;171.23;135.32;;;359.30;1689.60;;;;;;4971647;28;20165;-62